Rockwall's Hourly Summary for Wednesday, May 16, 2018
Hour Temp
(f)
RH
(%)
Solar Rad.
(MJ/m2)
Rainfall
(in)
Wind
(mph)
5/16/2018 12:00 AM 70 74 0 0 0
5/16/2018 1:00 AM 68 80 0 0 0
5/16/2018 2:00 AM 67 82 0 0 0
5/16/2018 3:00 AM 67 82 0 0 0.47
5/16/2018 4:00 AM 66 83 0 0 0.15
5/16/2018 5:00 AM 65 85 0 0 0.06
5/16/2018 6:00 AM 65 86 0 0 1.17
5/16/2018 7:00 AM 66 81 0.04 0 0.93
5/16/2018 8:00 AM 67 80 0.29 0 0.94
5/16/2018 9:00 AM 73 63 1.2 0 0.42
5/16/2018 10:00 AM 77 59 1.77 0 0.37
5/16/2018 11:00 AM 80 56 2.36 0 0.94
5/16/2018 12:00 PM 81 55 1.8 0 0.87
5/16/2018 1:00 PM 83 53 2.85 0 1.88
5/16/2018 2:00 PM 85 50 3.08 0 2.31
5/16/2018 3:00 PM 86 48 2.77 0 2.32
5/16/2018 4:00 PM 88 44 2.44 0 2.39
5/16/2018 5:00 PM 90 41 2.05 0 1.41
5/16/2018 6:00 PM 90 39 1.43 0 2.91
5/16/2018 7:00 PM 87 41 0.59 0 3.49
5/16/2018 8:00 PM 84 47 0.08 0 2.15
5/16/2018 9:00 PM 81 53 0.01 0 1.78
5/16/2018 10:00 PM 78 58 0 0 0.87
5/16/2018 11:00 PM 75 67 0 0 0
Data Summary 76 62 22.76 0.00 1.16